Time;durP1;ratioP1;P1;durP2;ratioP2;P2;SDS_P1;SDS_P2;PMS_P1;PMS_P2;Temp;Humidity;BMP_temperature;BMP_pressure;BME280_temperature;BME280_humidity;BME280_pressure;Samples;Min_cycle;Max_cycle;Signal;HPM_P1;HPM_P2
2022/08/14 00:01:17;;;;;;;12.50;11.53;;;18.90;88.60;;;19.04;68.88;97679.22;5035004;28;20986;-69
2022/08/14 00:03:44;;;;;;;11.23;10.37;;;18.80;88.90;;;18.86;69.48;97678.66;5034328;28;20500;-70
2022/08/14 00:06:11;;;;;;;11.97;11.07;;;18.60;89.30;;;18.80;69.81;97680.63;5033544;28;20852;-70
2022/08/14 00:08:38;;;;;;;12.70;11.47;;;18.60;89.90;;;18.74;70.10;97676.25;5031912;28;20459;-70
2022/08/14 00:11:06;;;;;;;11.73;10.73;;;18.50;90.20;;;18.69;70.64;97668.84;5033807;28;20563;-70
2022/08/14 00:13:34;;;;;;;12.67;11.73;;;18.50;90.70;;;19.13;69.36;97683.00;5032586;28;20897;-70
2022/08/14 00:16:01;;;;;;;13.20;12.20;;;18.60;90.30;;;19.15;69.09;97678.06;5034100;28;20889;-69
2022/08/14 00:18:30;;;;;;;11.70;10.80;;;18.80;90.10;;;19.13;69.11;97674.78;5035264;28;20544;-69
2022/08/14 00:20:59;;;;;;;12.93;11.87;;;18.70;90.00;;;19.16;68.86;97674.22;5048903;28;20874;-70
2022/08/14 00:23:26;;;;;;;11.80;10.93;;;18.80;90.00;;;19.19;69.03;97670.94;5049874;28;21030;-69
2022/08/14 00:25:56;;;;;;;12.07;11.10;;;18.80;90.00;;;19.18;68.65;97663.00;5032176;28;20462;-69
2022/08/14 00:28:26;;;;;;;12.27;11.17;;;18.70;90.00;;;19.17;68.94;97664.09;5048011;28;20510;-69
2022/08/14 00:30:56;;;;;;;12.93;11.93;;;18.60;90.30;;;19.14;69.27;97664.66;5051258;28;20449;-69
2022/08/14 00:33:25;;;;;;;12.37;11.37;;;18.50;90.70;;;18.95;69.56;97660.59;5034418;28;20462;-68
2022/08/14 00:35:54;;;;;;;14.27;13.10;;;18.50;90.60;;;18.93;69.75;97662.78;5032000;28;20497;-69
2022/08/14 00:38:21;;;;;;;13.60;12.40;;;18.60;90.10;;;18.90;69.54;97660.59;5034824;28;21037;-70
2022/08/14 00:40:50;;;;;;;15.70;14.23;;;18.60;89.80;;;18.91;69.38;97662.25;5032193;28;20536;-69
2022/08/14 00:43:17;;;;;;;15.87;14.30;;;18.60;89.50;;;18.92;69.23;97654.84;5033606;28;20562;-69
2022/08/14 00:45:45;;;;;;;13.83;12.53;;;18.50;89.80;;;18.86;69.42;97661.44;5032319;28;20515;-69
2022/08/14 00:48:12;;;;;;;15.17;13.90;;;18.50;89.60;;;18.39;70.11;97618.59;5050275;28;20508;-70
2022/08/14 00:50:40;;;;;;;13.70;12.63;;;18.40;90.30;;;18.58;70.72;97655.47;5047692;28;20450;-70
2022/08/14 00:53:09;;;;;;;15.30;13.87;;;18.30;90.80;;;18.64;70.65;97655.19;5030758;28;20953;-69
2022/08/14 00:55:40;;;;;;;15.00;13.80;;;18.30;91.00;;;18.63;70.98;97641.78;5027866;28;20474;-70
2022/08/14 01:00:53;;;;;;;13.20;12.20;;;18.30;91.00;;;18.63;70.92;97639.06;5029899;28;20442;-70
2022/08/14 01:03:21;;;;;;;13.90;12.77;;;18.30;91.10;;;18.44;71.59;97638.84;5030945;28;20805;-70
2022/08/14 01:05:51;;;;;;;15.50;14.30;;;18.20;91.30;;;18.29;72.07;97636.94;5031406;28;20550;-70
2022/08/14 01:08:22;;;;;;;14.87;13.57;;;18.10;91.70;;;18.38;71.87;97632.56;5030989;28;20478;-69
2022/08/14 01:10:52;;;;;;;14.40;13.20;;;18.10;91.80;;;18.49;71.66;97636.09;5028615;28;20965;-69
2022/08/14 01:13:22;;;;;;;13.30;12.20;;;18.10;91.50;;;18.38;72.07;97630.63;5029432;28;20497;-71
2022/08/14 01:15:55;;;;;;;13.57;12.40;;;18.00;91.90;;;18.25;72.12;97631.19;5044038;28;20493;-70
2022/08/14 01:21:13;;;;;;;13.63;12.37;;;17.90;92.50;;;18.15;72.58;97625.75;5046115;28;20931;-70
2022/08/14 01:23:45;;;;;;;12.27;11.27;;;17.90;92.50;;;18.02;72.98;97616.13;5037993;28;20441;-70
2022/08/14 01:26:14;;;;;;;14.93;13.73;;;17.80;92.70;;;17.73;73.26;97571.06;5034679;28;20484;-71
2022/08/14 01:28:43;;;;;;;13.40;12.30;;;17.80;93.00;;;18.05;73.02;97621.91;5029357;28;20457;-69
2022/08/14 01:31:13;;;;;;;14.17;13.07;;;17.80;92.80;;;18.17;73.69;97624.34;5046080;28;20447;-70
2022/08/14 01:33:43;;;;;;;13.83;12.73;;;17.80;93.20;;;18.27;73.18;97624.34;5027959;28;20827;-70
2022/08/14 01:36:12;;;;;;;14.70;13.50;;;17.90;93.00;;;18.15;73.66;97615.63;5028903;28;20459;-69
2022/08/14 01:38:43;;;;;;;13.40;12.40;;;17.90;92.90;;;18.18;73.55;97611.53;5044629;28;20457;-69
2022/08/14 01:41:14;;;;;;;14.40;13.00;;;18.00;92.90;;;18.33;73.47;97621.59;5018982;28;20551;-69
2022/08/14 01:43:48;;;;;;;14.17;13.10;;;18.00;92.80;;;18.19;74.04;97616.69;5023205;28;20444;-69
2022/08/14 01:46:16;;;;;;;14.87;13.60;;;18.00;93.00;;;18.30;73.96;97612.06;5009690;28;20451;-69
2022/08/14 01:48:45;;;;;;;14.37;13.27;;;18.00;93.30;;;18.30;74.32;97606.59;5009749;28;20475;-69
2022/08/14 01:51:15;;;;;;;13.70;12.70;;;18.00;93.60;;;18.25;74.32;97610.16;5010423;28;20462;-70
2022/08/14 01:53:48;;;;;;;13.93;12.83;;;18.10;93.20;;;18.22;74.67;97607.13;5009290;28;20501;-70
2022/08/14 01:56:18;;;;;;;15.17;14.00;;;18.20;93.00;;;18.28;74.09;97597.84;5038570;28;20587;-70
2022/08/14 01:58:48;;;;;;;13.87;12.77;;;18.10;93.20;;;18.35;74.31;97597.53;5027326;28;20459;-70
2022/08/14 02:01:16;;;;;;;15.93;14.53;;;18.10;93.10;;;18.35;74.19;97589.34;5028380;28;21265;-70
2022/08/14 02:03:44;;;;;;;14.43;13.10;;;18.20;93.00;;;18.30;74.17;97590.19;5027773;28;20529;-70
2022/08/14 02:06:12;;;;;;;14.80;13.30;;;18.20;93.00;;;18.22;74.45;97585.25;5037991;28;20454;-71
2022/08/14 02:08:43;;;;;;;14.80;13.70;;;18.10;93.10;;;18.24;74.65;97577.59;5029139;28;20459;-72
2022/08/14 02:11:20;;;;;;;14.27;13.07;;;18.10;93.40;;;18.27;74.72;97586.06;5028776;28;20844;-71
2022/08/14 02:13:58;;;;;;;14.20;13.07;;;18.10;93.50;;;18.20;74.62;97584.72;5024755;28;20553;-70
2022/08/14 02:16:28;;;;;;;14.83;13.60;;;18.00;93.30;;;18.18;74.94;97584.19;5023298;28;21023;-69
2022/08/14 02:18:59;;;;;;;15.50;14.23;;;18.00;93.50;;;18.09;75.25;97592.94;5026433;28;20490;-69
2022/08/14 02:21:31;;;;;;;14.47;13.37;;;18.00;93.50;;;18.10;75.25;97591.03;5029948;28;20474;-69
2022/08/14 02:24:03;;;;;;;14.77;13.57;;;18.10;93.40;;;18.08;75.25;97582.28;5028003;28;20546;-69
2022/08/14 02:26:34;;;;;;;15.50;14.20;;;18.10;93.40;;;17.72;75.41;97519.44;5027999;28;20466;-69
2022/08/14 02:29:06;;;;;;;14.17;12.93;;;18.00;93.40;;;17.99;75.71;97562.88;5026961;28;20485;-70
2022/08/14 02:31:38;;;;;;;15.13;14.00;;;18.00;93.50;;;18.02;75.35;97559.59;5029112;28;20647;-70
2022/08/14 02:34:09;;;;;;;15.17;13.87;;;18.00;93.50;;;17.96;75.93;97555.19;5027179;28;20450;-71
2022/08/14 02:36:36;;;;;;;16.10;14.77;;;17.90;93.60;;;18.06;75.39;97562.63;5029006;28;20976;-70
2022/08/14 02:39:06;;;;;;;15.20;13.77;;;17.90;93.70;;;17.88;75.95;97561.22;5028504;28;20532;-69
2022/08/14 02:41:34;;;;;;;15.13;13.93;;;17.90;93.90;;;17.99;75.56;97551.94;5029447;28;20543;-68
2022/08/14 02:44:03;;;;;;;15.80;14.40;;;17.90;93.90;;;18.05;75.57;97548.13;5025322;28;20439;-69
2022/08/14 02:46:31;;;;;;;16.53;15.00;;;17.90;94.00;;;17.92;76.23;97545.91;5029367;28;20963;-70
2022/08/14 02:48:59;;;;;;;15.67;14.17;;;17.80;94.20;;;17.82;76.50;97542.13;5027862;28;20454;-69
2022/08/14 02:51:28;;;;;;;15.07;13.87;;;17.80;94.20;;;17.89;76.46;97543.75;5014007;28;20961;-69
2022/08/14 02:53:57;;;;;;;15.67;14.47;;;17.80;94.60;;;17.85;76.72;97543.47;5007591;28;20462;-70
2022/08/14 02:56:26;;;;;;;16.23;14.93;;;17.80;94.70;;;17.77;76.80;97544.03;5023772;28;20560;-70
2022/08/14 02:58:55;;;;;;;16.53;15.20;;;17.70;94.50;;;17.77;77.13;97541.31;5029236;28;20466;-69
2022/08/14 03:01:26;;;;;;;17.53;16.13;;;17.70;95.00;;;17.73;77.22;97540.19;5048676;28;20449;-71
2022/08/14 03:03:54;;;;;;;14.63;13.53;;;17.70;95.00;;;17.63;77.69;97543.75;5046025;28;20552;-70
2022/08/14 03:06:23;;;;;;;16.60;15.23;;;17.60;95.00;;;17.60;78.04;97538.84;5035372;28;20486;-70
2022/08/14 03:08:52;;;;;;;15.90;14.70;;;17.60;95.50;;;17.64;77.62;97535.28;5026206;28;20466;-69
2022/08/14 03:11:20;;;;;;;16.57;15.27;;;17.60;95.30;;;17.69;77.99;97534.47;5029116;28;20473;-69
2022/08/14 03:13:51;;;;;;;16.90;15.50;;;17.60;95.70;;;17.66;77.55;97537.72;5035530;28;20489;-70
2022/08/14 03:16:22;;;;;;;18.40;16.97;;;17.50;95.70;;;17.53;78.27;97529.00;5032914;28;20472;-69
2022/08/14 03:18:53;;;;;;;16.30;14.80;;;17.50;95.80;;;17.51;78.13;97531.16;5045707;28;20456;-70
2022/08/14 03:21:23;;;;;;;17.10;15.60;;;17.50;95.90;;;17.54;77.87;97514.25;5048912;28;20527;-69
2022/08/14 03:23:59;;;;;;;16.03;14.73;;;17.40;96.20;;;17.50;78.16;97524.06;5047194;28;20449;-68
2022/08/14 03:26:28;;;;;;;17.60;16.10;;;17.40;96.30;;;17.45;78.70;97532.28;5029533;28;20462;-69
2022/08/14 03:28:57;;;;;;;16.30;15.00;;;17.30;96.70;;;17.56;78.17;97520.28;5026831;28;20446;-71
2022/08/14 03:31:24;;;;;;;16.03;14.73;;;17.40;96.70;;;17.49;78.51;97525.16;5028284;28;20457;-69
2022/08/14 03:33:51;;;;;;;17.40;16.03;;;17.30;96.80;;;17.38;79.05;97523.53;5025925;28;20462;-69
2022/08/14 03:36:21;;;;;;;17.43;16.03;;;17.30;96.70;;;17.33;79.52;97521.63;5043245;28;20974;-69
2022/08/14 03:38:52;;;;;;;16.53;15.13;;;17.30;97.20;;;17.26;79.71;97521.06;5027391;28;20965;-69
2022/08/14 03:41:22;;;;;;;17.97;16.57;;;17.20;97.80;;;17.07;79.45;97477.91;5043415;28;20799;-70
2022/08/14 03:43:54;;;;;;;16.70;15.40;;;17.20;97.90;;;17.27;79.92;97519.97;5042411;28;20500;-69
2022/08/14 03:46:25;;;;;;;17.07;15.67;;;17.20;98.10;;;17.23;80.33;97511.53;5026584;28;20454;-68
2022/08/14 03:48:54;;;;;;;17.27;15.87;;;17.20;98.70;;;17.29;80.63;97512.34;5042363;28;20455;-70
2022/08/14 03:51:27;;;;;;;16.70;15.40;;;17.10;99.00;;;17.28;80.63;97511.50;5026933;28;20442;-69
2022/08/14 03:53:58;;;;;;;16.63;15.33;;;17.20;98.70;;;17.34;80.29;97508.78;5040699;28;20914;-70
2022/08/14 03:56:26;;;;;;;18.20;16.70;;;17.20;99.30;;;17.31;81.08;97504.69;5027944;28;20589;-69
2022/08/14 03:58:57;;;;;;;18.63;17.03;;;17.20;99.60;;;17.04;81.11;97443.00;5026399;28;20577;-69
2022/08/14 04:01:27;;;;;;;16.87;15.37;;;17.30;99.90;;;17.35;81.06;97474.94;5026331;28;20500;-69
2022/08/14 04:03:56;;;;;;;17.33;15.93;;;17.30;99.70;;;17.42;81.23;97484.47;5027184;28;20447;-69
2022/08/14 04:06:24;;;;;;;16.77;15.37;;;17.40;99.60;;;17.40;81.44;97475.75;5055423;28;20445;-69
2022/08/14 04:08:52;;;;;;;16.73;15.30;;;17.40;99.50;;;17.64;81.07;97479.81;5037617;28;20466;-70
2022/08/14 04:11:20;;;;;;;17.30;15.87;;;17.50;99.30;;;17.63;81.22;97473.56;5023234;28;20550;-70
2022/08/14 04:13:48;;;;;;;16.53;15.20;;;17.60;98.70;;;17.77;80.72;97471.06;5028099;28;20510;-69
2022/08/14 04:16:19;;;;;;;15.93;14.73;;;17.70;98.60;;;17.82;80.56;97471.09;5027096;28;20450;-69
2022/08/14 04:18:51;;;;;;;17.67;16.20;;;17.80;98.40;;;17.83;80.49;97461.78;5026690;28;20457;-69
2022/08/14 04:21:23;;;;;;;15.57;14.37;;;17.80;98.20;;;17.94;80.19;97450.81;5026076;28;20969;-69
2022/08/14 04:23:52;;;;;;;16.33;15.03;;;17.90;97.80;;;17.90;80.29;97460.66;5026821;28;20454;-69
2022/08/14 04:26:21;;;;;;;16.87;15.57;;;17.90;98.00;;;17.91;80.75;97462.31;5027160;28;20460;-68
2022/08/14 04:28:50;;;;;;;16.40;15.10;;;17.90;97.80;;;17.98;80.23;97458.19;5030419;28;20496;-69
2022/08/14 04:31:19;;;;;;;16.63;15.23;;;18.00;97.50;;;18.24;78.80;97460.03;5029781;28;20501;-69
2022/08/14 04:33:48;;;;;;;16.33;15.03;;;18.20;95.80;;;18.36;78.18;97452.34;5029191;28;20557;-69
2022/08/14 04:36:15;;;;;;;15.17;13.83;;;18.40;95.00;;;18.66;77.17;97450.56;5029262;28;20490;-69
2022/08/14 04:44:14;;;;;;;16.43;15.13;;;19.30;91.80;;;19.59;72.88;97440.03;5029245;28;20485;-70
2022/08/14 04:48:11;;;;;;;14.47;13.37;;;19.50;91.10;;;19.64;72.00;97437.25;5046392;28;20456;-70
2022/08/14 04:49:32;;;;;;;15.20;13.90;;;19.80;90.10;;;20.02;70.80;97433.88;5029789;28;20461;-70
2022/08/14 04:52:03;;;;;;;13.87;12.67;;;20.00;89.60;;;20.57;68.66;97438.97;5030665;28;20458;-70
2022/08/14 04:54:30;;;;;;;14.77;13.57;;;20.50;87.10;;;21.33;65.52;97437.31;5029581;28;20482;-69
2022/08/14 04:56:57;;;;;;;14.07;12.87;;;21.00;85.10;;;21.50;64.63;97443.06;5045762;28;20482;-70
2022/08/14 04:59:25;;;;;;;14.17;13.03;;;21.50;83.10;;;21.83;63.54;97438.66;5029911;28;20509;-70
2022/08/14 05:01:53;;;;;;;13.80;12.60;;;21.80;82.50;;;22.14;62.16;97438.06;5030868;28;20462;-69
2022/08/14 05:04:23;;;;;;;13.97;12.83;;;22.20;81.20;;;23.04;59.67;97448.53;5029305;28;20448;-69
2022/08/14 05:06:54;;;;;;;13.07;12.07;;;22.70;80.30;;;22.47;60.72;97451.69;5030420;28;20461;-69
2022/08/14 05:09:22;;;;;;;12.77;11.77;;;22.80;79.00;;;22.22;61.91;97438.16;5042616;28;20894;-69
2022/08/14 05:11:50;;;;;;;12.90;12.00;;;22.60;79.40;;;22.43;61.43;97446.00;5030601;28;20457;-70
2022/08/14 05:14:17;;;;;;;13.63;12.43;;;22.60;79.30;;;22.06;62.04;97445.09;5009351;28;20444;-70
2022/08/14 05:16:45;;;;;;;14.23;12.97;;;22.60;78.80;;;22.06;62.51;97442.34;5011120;28;20561;-70
2022/08/14 05:19:13;;;;;;;13.80;12.70;;;22.50;79.00;;;22.21;61.75;97441.22;5025308;28;20535;-70
2022/08/14 05:21:40;;;;;;;13.13;12.23;;;22.60;78.80;;;22.23;62.02;97447.25;5010816;28;20495;-70
2022/08/14 05:24:11;;;;;;;13.37;12.37;;;22.60;78.70;;;23.17;59.14;97449.63;5009576;28;20461;-71
2022/08/14 05:26:45;;;;;;;12.93;12.00;;;23.10;78.30;;;23.33;58.41;97449.28;5043312;28;20472;-70
2022/08/14 05:29:13;;;;;;;12.00;11.10;;;23.80;76.80;;;24.02;56.29;97448.06;5044884;28;20761;-70
2022/08/14 05:31:40;;;;;;;12.40;11.50;;;24.00;75.90;;;23.27;58.47;97445.00;5045478;28;20448;-70
2022/08/14 05:34:07;;;;;;;13.97;12.87;;;23.90;75.50;;;23.34;57.80;97445.41;5028902;28;20463;-70
2022/08/14 05:36:35;;;;;;;12.47;11.50;;;23.80;75.50;;;23.99;56.17;97447.88;5046111;28;20448;-70
2022/08/14 05:39:03;;;;;;;13.47;12.47;;;24.00;75.10;;;24.27;54.97;97444.94;5027526;28;20454;-71
2022/08/14 05:41:33;;;;;;;12.33;11.43;;;24.30;74.40;;;24.55;54.24;97436.38;5046300;28;20446;-70
2022/08/14 05:44:00;;;;;;;12.77;11.57;;;24.60;73.60;;;24.79;53.14;97435.16;5026695;28;20444;-70
2022/08/14 05:46:28;;;;;;;11.87;11.07;;;25.00;72.70;;;23.82;56.23;97440.31;5027704;28;20475;-70
2022/08/14 05:48:58;;;;;;;11.83;10.97;;;24.70;72.70;;;23.75;55.91;97422.31;5030980;28;20471;-70
2022/08/14 05:51:28;;;;;;;12.43;11.33;;;24.40;73.00;;;24.22;55.39;97465.19;5048944;28;20950;-70
2022/08/14 05:53:55;;;;;;;11.30;10.50;;;24.50;72.80;;;24.15;55.66;97468.41;5047240;28;21309;-69
2022/08/14 05:56:24;;;;;;;12.87;11.77;;;24.50;73.00;;;24.78;54.05;97461.94;5032854;28;20467;-69
2022/08/14 05:58:54;;;;;;;12.70;11.50;;;25.00;72.30;;;24.26;55.07;97471.69;5028798;28;20574;-70
2022/08/14 06:01:21;;;;;;;12.00;11.00;;;25.00;71.80;;;23.38;57.77;97470.41;5029987;28;20982;-70
2022/08/14 06:03:49;;;;;;;12.00;11.10;;;24.40;72.50;;;23.41;57.95;97478.03;5027900;28;20503;-70
2022/08/14 06:06:17;;;;;;;13.30;12.03;;;23.80;73.80;;;22.14;61.96;97482.09;5040599;28;20456;-70
2022/08/14 06:08:45;;;;;;;11.97;11.07;;;22.70;75.60;;;21.73;63.65;97483.66;5048611;28;20743;-70
2022/08/14 06:11:12;;;;;;;12.77;11.77;;;22.10;77.60;;;21.13;65.91;97482.41;5065314;28;20453;-71
2022/08/14 06:13:43;;;;;;;10.90;10.10;;;21.40;80.00;;;20.97;66.96;97476.31;5031517;28;20450;-70
2022/08/14 06:16:12;;;;;;;11.87;10.90;;;21.10;81.90;;;20.95;67.14;97482.91;5026860;28;20451;-71
2022/08/14 06:18:39;;;;;;;12.07;11.10;;;21.00;83.30;;;21.12;66.61;97478.03;5027846;28;20596;-71
2022/08/14 06:21:07;;;;;;;11.60;10.80;;;20.90;84.30;;;21.19;66.53;97476.53;5015295;28;20451;-71
2022/08/14 06:23:35;;;;;;;13.50;12.50;;;20.90;84.30;;;20.77;67.95;97470.75;5024001;28;20484;-71
2022/08/14 06:26:02;;;;;;;13.10;12.10;;;20.80;84.80;;;20.67;68.50;97466.25;5019965;28;20458;-69
2022/08/14 06:28:29;;;;;;;12.00;11.10;;;20.70;85.50;;;20.81;68.00;97443.59;5029323;28;20445;-70
2022/08/14 06:30:56;;;;;;;13.17;12.17;;;20.70;85.90;;;20.89;68.01;97472.28;5028056;28;20503;-71
2022/08/14 06:33:25;;;;;;;13.03;11.97;;;20.80;85.90;;;21.13;67.32;97472.22;5029824;28;20459;-69
2022/08/14 06:35:52;;;;;;;12.27;11.27;;;20.90;85.80;;;21.47;66.27;97473.88;5026126;28;20455;-70
2022/08/14 06:38:22;;;;;;;12.67;11.67;;;21.20;85.20;;;21.40;66.48;97469.91;5029487;28;20476;-70
2022/08/14 06:40:51;;;;;;;12.90;11.73;;;21.30;84.70;;;21.59;65.39;97469.84;5043871;28;20513;-70
2022/08/14 06:43:21;;;;;;;12.50;11.50;;;21.40;84.30;;;21.72;65.54;97471.03;5043301;28;20461;-70
2022/08/14 06:45:50;;;;;;;12.30;11.20;;;21.40;84.40;;;21.77;64.81;97463.50;5042311;28;20557;-71
2022/08/14 06:48:21;;;;;;;11.57;10.67;;;21.60;83.80;;;21.79;65.10;97464.03;5029160;28;20547;-73
2022/08/14 06:50:53;;;;;;;11.60;10.70;;;21.60;83.90;;;21.90;64.66;97461.91;5042754;28;20454;-71
2022/08/14 06:53:20;;;;;;;11.60;10.60;;;21.60;83.60;;;21.73;65.19;97465.22;5027556;28;20878;-69
2022/08/14 06:55:49;;;;;;;11.27;10.47;;;21.60;83.60;;;22.00;64.41;97460.88;5041439;28;20452;-69
2022/08/14 06:58:18;;;;;;;11.30;10.40;;;21.70;83.60;;;22.12;63.99;97465.06;5019993;28;20529;-71
2022/08/14 07:06:15;;;;;;;10.77;9.97;;;22.00;82.60;;;22.49;63.10;97466.00;5035843;28;20456;-71
2022/08/14 07:08:44;;;;;;;11.73;10.73;;;22.20;82.50;;;22.63;62.31;97457.75;5026629;28;20504;-69
2022/08/14 07:11:12;;;;;;;11.43;10.60;;;22.30;82.00;;;22.85;61.83;97461.66;5027508;28;20545;-70
2022/08/14 07:13:40;;;;;;;11.57;10.67;;;22.50;81.60;;;22.82;61.62;97462.28;5025952;28;20451;-75
2022/08/14 07:16:08;;;;;;;11.10;10.30;;;22.60;81.30;;;22.78;62.04;97459.31;5027394;28;20664;-71
2022/08/14 07:18:36;;;;;;;10.30;9.60;;;22.60;81.50;;;23.07;60.76;97449.84;5028116;28;20486;-76
2022/08/14 07:21:06;;;;;;;10.37;9.57;;;22.80;81.20;;;22.88;61.42;97455.53;5028598;28;20548;-71
2022/08/14 07:23:36;;;;;;;8.80;8.20;;;22.60;80.90;;;23.13;60.40;97448.63;5028571;28;20449;-76
2022/08/14 07:26:06;;;;;;;9.30;8.67;;;22.80;80.40;;;22.91;60.39;97449.41;5027244;28;20447;-71
2022/08/14 07:28:37;;;;;;;9.23;8.53;;;22.90;79.60;;;22.97;60.20;97445.41;5043604;28;20454;-75
2022/08/14 07:31:07;;;;;;;9.67;8.87;;;22.90;79.50;;;23.38;59.05;97435.38;5027555;28;21042;-69
2022/08/14 07:33:37;;;;;;;8.83;8.13;;;23.00;79.40;;;23.54;58.09;97432.22;5027749;28;20514;-76
2022/08/14 07:36:08;;;;;;;7.63;7.03;;;23.30;78.80;;;23.33;58.53;97432.75;5027072;28;20457;-70
2022/08/14 07:38:39;;;;;;;9.40;8.60;;;23.30;78.00;;;23.54;58.18;97437.72;5042103;28;20559;-75
2022/08/14 07:41:10;;;;;;;7.93;7.33;;;23.30;77.90;;;23.62;57.58;97428.72;5020628;28;20451;-71
2022/08/14 07:43:38;;;;;;;7.57;6.97;;;23.40;77.50;;;24.00;56.47;97425.47;5027256;28;20456;-70
2022/08/14 07:46:06;;;;;;;8.00;7.20;;;23.60;77.10;;;24.01;55.96;97429.84;5025693;28;20487;-69
2022/08/14 07:48:39;;;;;;;8.17;7.57;;;23.70;76.40;;;24.06;56.28;97426.16;5026736;28;20446;-75
2022/08/14 07:51:07;;;;;;;7.67;6.97;;;23.80;76.40;;;23.87;56.05;97385.84;5028634;28;20568;-70
2022/08/14 07:53:36;;;;;;;7.90;7.07;;;23.80;76.20;;;24.16;56.05;97420.38;5043031;28;20474;-77
2022/08/14 07:56:04;;;;;;;7.03;6.57;;;23.80;76.00;;;24.19;55.12;97403.16;5023384;28;20470;-70
2022/08/14 07:58:32;;;;;;;7.07;6.57;;;23.90;75.50;;;24.00;55.34;97406.16;5043360;28;20986;-70
2022/08/14 08:01:01;;;;;;;7.20;6.70;;;23.80;74.70;;;24.30;53.97;97389.88;5044830;28;20469;-73
2022/08/14 08:03:29;;;;;;;7.60;6.93;;;24.00;74.40;;;24.59;53.45;97390.44;5032677;28;20447;-72
2022/08/14 08:05:57;;;;;;;8.10;7.40;;;24.20;74.10;;;24.58;54.04;97400.66;5038359;28;20469;-69
2022/08/14 08:08:26;;;;;;;8.60;8.00;;;24.30;74.20;;;24.31;54.34;97393.47;5052167;28;20967;-69
2022/08/14 08:10:59;;;;;;;7.10;6.60;;;24.20;73.70;;;24.39;54.74;97378.06;5049749;28;20452;-71
2022/08/14 08:13:28;;;;;;;8.73;7.93;;;24.20;74.40;;;24.76;53.74;97381.34;5038486;28;20795;-71
2022/08/14 08:15:57;;;;;;;8.17;7.53;;;24.40;73.80;;;24.84;53.28;97388.84;5029619;28;20463;-70
2022/08/14 08:18:27;;;;;;;7.90;7.30;;;24.60;73.50;;;25.08;52.99;97376.47;5031695;28;20520;-70
2022/08/14 08:20:55;;;;;;;9.10;8.30;;;24.80;73.40;;;25.37;51.57;97377.72;5031080;28;20457;-72
2022/08/14 08:23:24;;;;;;;8.30;7.70;;;25.00;72.60;;;25.24;51.81;97379.53;5047501;28;20457;-70
2022/08/14 08:25:52;;;;;;;6.87;6.37;;;25.00;72.10;;;25.32;51.97;97380.66;5029625;28;20467;-70
2022/08/14 08:28:23;;;;;;;7.80;7.10;;;25.10;71.60;;;25.15;51.28;97379.56;5047246;28;20459;-70
2022/08/14 08:30:55;;;;;;;7.40;6.90;;;25.10;71.20;;;25.43;50.88;97376.41;5030355;28;20483;-71
2022/08/14 08:33:25;;;;;;;7.90;7.30;;;25.10;71.20;;;25.42;50.19;97380.31;5030942;28;20487;-68
2022/08/14 08:35:54;;;;;;;7.13;6.47;;;25.20;70.00;;;25.20;50.29;97373.06;5027831;28;20465;-69
2022/08/14 08:38:25;;;;;;;6.70;6.20;;;25.10;69.40;;;25.64;49.66;97378.50;5047107;28;20469;-71
2022/08/14 08:40:57;;;;;;;8.40;7.63;;;25.10;69.70;;;25.91;48.84;97365.38;5029909;28;20457;-69
2022/08/14 08:43:29;;;;;;;6.50;5.90;;;25.30;69.00;;;26.13;47.08;97369.00;5046831;28;20450;-69
2022/08/14 08:46:00;;;;;;;6.00;5.60;;;25.50;67.10;;;25.74;46.54;97369.84;5029187;28;20485;-70
2022/08/14 08:48:29;;;;;;;6.37;5.87;;;25.50;65.80;;;25.83;46.97;97367.03;5029848;28;20861;-69
2022/08/14 08:50:59;;;;;;;5.93;5.50;;;25.60;65.80;;;26.14;46.50;97373.38;5029649;28;20460;-72
2022/08/14 08:53:32;;;;;;;5.90;5.50;;;25.70;66.00;;;26.08;46.16;97371.97;5053061;28;20437;-70
2022/08/14 08:55:59;;;;;;;6.30;5.90;;;25.90;65.10;;;25.99;46.63;97366.47;5038037;28;20454;-70
2022/08/14 08:58:28;;;;;;;5.60;5.13;;;25.80;64.90;;;25.96;46.13;97359.63;5031457;28;20480;-70
2022/08/14 09:00:58;;;;;;;5.30;5.00;;;25.70;64.50;;;25.86;46.83;97360.03;5029888;28;20949;-70
2022/08/14 09:03:28;;;;;;;6.17;5.67;;;25.60;65.10;;;25.97;46.48;97358.50;5031742;28;20455;-69
2022/08/14 09:05:57;;;;;;;6.27;5.87;;;25.80;64.60;;;26.06;46.41;97357.66;5037897;28;20449;-70
2022/08/14 09:08:27;;;;;;;5.67;5.27;;;25.80;64.20;;;26.27;45.71;97352.97;5051097;28;21093;-72
2022/08/14 09:10:57;;;;;;;6.27;5.77;;;26.00;64.20;;;26.27;45.72;97352.97;5048149;28;20486;-73
2022/08/14 09:13:26;;;;;;;6.30;5.90;;;26.10;63.80;;;26.15;45.90;97350.09;5035384;28;20508;-73
2022/08/14 09:15:55;;;;;;;6.03;5.53;;;25.90;63.50;;;25.95;46.51;97346.16;5008985;28;20465;-72
2022/08/14 09:18:26;;;;;;;6.63;6.13;;;25.80;63.80;;;26.00;46.72;97354.25;5011339;28;20537;-71
2022/08/14 09:20:56;;;;;;;6.60;6.10;;;25.80;63.90;;;26.01;46.58;97356.69;5024928;28;20504;-72
2022/08/14 09:23:24;;;;;;;6.77;6.17;;;25.80;64.00;;;26.03;46.33;97359.94;5009701;28;20490;-70
2022/08/14 09:25:53;;;;;;;6.10;5.60;;;25.80;63.70;;;26.36;46.01;97355.69;5019440;28;20923;-70
2022/08/14 09:28:21;;;;;;;6.70;6.20;;;26.00;63.90;;;26.30;45.90;97355.06;5030895;28;20463;-69
2022/08/14 09:30:53;;;;;;;6.13;5.63;;;26.10;63.30;;;26.21;45.00;97315.59;5044034;28;20496;-70
2022/08/14 09:33:51;;;;;;;6.50;6.03;;;26.20;62.80;;;26.57;45.24;97364.00;5030466;28;20520;-71
2022/08/14 09:36:42;;;;;;;5.70;5.30;;;26.30;62.70;;;26.14;45.99;97351.25;5008409;28;20450;-71
2022/08/14 09:39:23;;;;;;;6.47;5.87;;;26.10;62.50;;;26.02;46.64;97341.72;5009572;28;20474;-74
2022/08/14 09:42:12;;;;;;;6.43;6.03;;;25.90;63.00;;;26.40;45.05;97330.91;5030545;28;20466;-69
2022/08/14 09:44:50;;;;;;;6.87;6.37;;;26.10;62.30;;;26.54;45.43;97334.22;5027856;28;20458;-69
2022/08/14 09:47:20;;;;;;;6.57;6.07;;;26.30;62.50;;;26.63;44.96;97338.91;5044779;28;20489;-72
2022/08/14 09:49:49;;;;;;;6.23;5.73;;;26.40;62.10;;;26.62;44.54;97306.81;5028394;28;20458;-69
2022/08/14 09:52:17;;;;;;;6.67;6.17;;;26.50;62.10;;;27.12;44.19;97346.63;5030504;28;20457;-71
2022/08/14 09:54:47;;;;;;;6.50;5.90;;;26.70;61.80;;;27.32;43.58;97342.19;5028119;28;20493;-72
2022/08/14 09:57:26;;;;;;;6.37;5.87;;;26.90;61.30;;;27.07;43.55;97344.91;5030184;28;20516;-73
2022/08/14 09:59:55;;;;;;;7.30;6.60;;;26.90;60.50;;;27.24;42.97;97335.56;5029118;28;20568;-71
2022/08/14 10:02:26;;;;;;;6.63;6.23;;;27.00;60.50;;;27.22;43.16;97334.28;5030534;28;20505;-74
2022/08/14 10:05:03;;;;;;;7.63;7.13;;;27.00;60.20;;;27.74;42.26;97332.91;5028291;28;20821;-68
2022/08/14 10:07:33;;;;;;;6.53;6.13;;;27.30;59.80;;;27.77;41.34;97336.97;5029385;28;20454;-71
2022/08/14 10:10:00;;;;;;;5.93;5.53;;;27.60;58.80;;;27.85;41.16;97328.50;5044093;28;20455;-69
2022/08/14 10:12:47;;;;;;;6.90;6.40;;;27.70;58.80;;;27.66;42.17;97322.75;5028587;28;20450;-69
2022/08/14 10:15:18;;;;;;;7.03;6.53;;;27.50;59.00;;;27.98;41.75;97321.00;5028005;28;20457;-75
2022/08/14 10:17:47;;;;;;;7.90;7.20;;;27.70;58.90;;;28.28;40.98;97308.84;5045127;28;20462;-72
2022/08/14 10:20:19;;;;;;;7.10;6.60;;;28.00;58.70;;;28.21;41.17;97305.88;5044155;28;20506;-71
2022/08/14 10:22:48;;;;;;;9.73;6.70;;;28.00;58.30;;;28.28;40.79;97301.34;5045366;28;20446;-71
2022/08/14 10:25:18;;;;;;;7.40;6.80;;;28.00;58.20;;;28.44;40.57;97299.78;5029372;28;20442;-72
2022/08/14 10:27:57;;;;;;;7.40;6.80;;;28.20;58.10;;;28.33;40.64;97296.69;5029497;28;20467;-76
2022/08/14 10:30:36;;;;;;;7.20;6.57;;;28.10;58.00;;;28.24;40.78;97280.97;5042850;28;20948;-69
2022/08/14 10:33:05;;;;;;;8.13;7.47;;;28.10;58.00;;;28.18;41.37;97287.94;5048648;28;20576;-72
2022/08/14 10:35:41;;;;;;;7.00;6.50;;;28.00;58.00;;;28.27;41.08;97288.59;5046343;28;20454;-68
2022/08/14 10:38:09;;;;;;;7.13;6.63;;;28.10;58.10;;;28.26;41.30;97284.19;5042644;28;20573;-69